Forside
METAR-TAF:

METAR-TAF

Lufthavne :

Brigham City, Utah, USA

Breddekreds: 41-33-09N, længdekreds: 112-03-44W, højde: 1289 m

Aktuelle vejr

Denne rapport blev lavet for 20 minutter siden, kl. 07:30 UTC
Vind stille
Temperatur -4°C
Fugtighed 68%
Tryk 1024 hPa
Sigt: 16.1 km
skyfri

METAR: KBMC 220730Z AUTO 00000KT 10SM CLR M04/M09 A3023 RMK AO1 T10401092

Tid: 00:50 (07:50 UTC)


TAF: fraværende

Vejrobservationer og prognoser fra mere end 4000 lufthavne (METAR og TAF).

De gule og røde prikker repræsenterer de meteorologiske stationer.

Flyt musen over at se navnet på stationen.

Så klik over at se vejr observationer og prognoser.

At skifte det kort: Klik på de grønne knapper med et sort kors for at zoome ind; på den grønne knap med en bindestreg for at zoome ud; eller på de grønne pile for tilstødende kort.


METAR-TAF: